createdAt,value
2022-08-30T00:00:59.167Z,10.45
2022-08-30T00:01:59.140Z,10.45
2022-08-30T00:02:59.282Z,10.43
2022-08-30T00:03:59.196Z,10.46
2022-08-30T00:04:59.088Z,10.39
2022-08-30T00:05:59.072Z,10.42
2022-08-30T00:06:59.061Z,10.38
2022-08-30T00:07:59.059Z,10.38
2022-08-30T00:08:59.039Z,10.38
2022-08-30T00:09:59.022Z,10.36
2022-08-30T00:10:59.015Z,10.36
2022-08-30T00:11:58.992Z,10.34
2022-08-30T00:12:59.009Z,10.34
2022-08-30T00:13:58.972Z,10.30
2022-08-30T00:14:58.982Z,10.27
2022-08-30T00:15:59.029Z,10.27
2022-08-30T00:16:58.943Z,10.27
2022-08-30T00:17:58.941Z,10.23
2022-08-30T00:18:58.945Z,10.21
2022-08-30T00:19:58.913Z,10.24
2022-08-30T00:20:58.907Z,10.20
2022-08-30T00:21:58.892Z,10.16
2022-08-30T00:22:58.896Z,10.23
2022-08-30T00:23:58.883Z,10.21
2022-08-30T00:24:58.865Z,10.23
2022-08-30T00:25:58.855Z,10.24
2022-08-30T00:26:58.845Z,10.24
2022-08-30T00:27:58.835Z,10.21
2022-08-30T00:28:58.853Z,10.18
2022-08-30T00:29:58.826Z,10.18
2022-08-30T00:30:58.863Z,10.26
2022-08-30T00:31:58.847Z,10.20
2022-08-30T00:32:58.818Z,10.18
2022-08-30T00:33:58.818Z,10.20
2022-08-30T00:34:58.810Z,10.20
2022-08-30T00:35:58.798Z,10.18
2022-08-30T00:36:58.797Z,10.18
2022-08-30T00:37:58.786Z,10.16
2022-08-30T00:38:58.778Z,10.14
2022-08-30T00:39:58.849Z,10.09
2022-08-30T00:40:58.769Z,10.09
2022-08-30T00:41:58.777Z,10.08
2022-08-30T00:42:59.241Z,10.10
2022-08-30T00:43:58.750Z,10.10
2022-08-30T00:44:58.749Z,10.10
2022-08-30T00:45:58.759Z,10.08
2022-08-30T00:46:58.710Z,10.06
2022-08-30T00:47:58.701Z,10.10
2022-08-30T00:48:58.692Z,10.10
2022-08-30T00:49:58.691Z,10.08
2022-08-30T00:50:58.686Z,10.10
2022-08-30T00:51:58.691Z,10.12
2022-08-30T00:52:58.673Z,10.08
2022-08-30T00:53:58.658Z,10.16
2022-08-30T00:54:58.664Z,10.12
2022-08-30T00:55:58.642Z,10.10
2022-08-30T00:56:58.635Z,10.05
2022-08-30T00:57:58.627Z,10.06
2022-08-30T00:58:58.618Z,10.05
2022-08-30T00:59:58.614Z,10.09
2022-08-30T01:00:58.628Z,10.06
2022-08-30T01:01:58.658Z,10.08
2022-08-30T01:02:58.655Z,10.06
2022-08-30T01:03:58.583Z,10.10
2022-08-30T01:04:58.584Z,10.09
2022-08-30T01:05:58.585Z,10.01
2022-08-30T01:06:58.567Z,9.99
2022-08-30T01:07:58.574Z,9.99
2022-08-30T01:08:58.548Z,9.96
2022-08-30T01:09:58.547Z,9.98
2022-08-30T01:10:58.542Z,9.98
2022-08-30T01:11:58.508Z,9.96
2022-08-30T01:12:58.513Z,9.93
2022-08-30T01:13:58.487Z,9.93
2022-08-30T01:14:58.469Z,9.91
2022-08-30T01:15:58.485Z,9.91
2022-08-30T01:16:58.464Z,9.93
2022-08-30T01:17:58.450Z,9.91
2022-08-30T01:18:58.442Z,9.90
2022-08-30T01:19:58.440Z,9.90
2022-08-30T01:20:58.418Z,9.94
2022-08-30T01:21:58.422Z,9.94
2022-08-30T01:22:58.392Z,9.91
2022-08-30T01:23:58.382Z,9.91
2022-08-30T01:24:58.373Z,9.93
2022-08-30T01:25:58.352Z,9.96
2022-08-30T01:26:58.333Z,9.99
2022-08-30T01:27:58.333Z,9.93
2022-08-30T01:28:58.304Z,9.98
2022-08-30T01:29:58.305Z,9.94
2022-08-30T01:30:58.349Z,9.90
2022-08-30T01:31:58.283Z,9.88
2022-08-30T01:32:58.274Z,9.88
2022-08-30T01:33:58.245Z,9.93
2022-08-30T01:34:58.237Z,9.87
2022-08-30T01:35:58.220Z,9.84
2022-08-30T01:36:58.231Z,9.84
2022-08-30T01:37:58.196Z,9.84
2022-08-30T01:38:58.193Z,9.81
2022-08-30T01:39:58.204Z,9.80
2022-08-30T01:41:04.814Z,9.77
2022-08-30T01:41:58.114Z,9.77
2022-08-30T01:42:58.104Z,9.77
2022-08-30T01:43:58.096Z,9.75
2022-08-30T01:44:58.065Z,9.73
2022-08-30T01:45:58.108Z,9.75
2022-08-30T01:46:58.046Z,9.73
2022-08-30T01:47:58.686Z,9.62
2022-08-30T01:48:58.017Z,9.66
2022-08-30T01:49:58.017Z,9.67
2022-08-30T01:50:57.998Z,9.66
2022-08-30T01:52:01.148Z,9.70
2022-08-30T01:52:57.978Z,9.67
2022-08-30T01:53:57.968Z,9.67
2022-08-30T01:54:57.977Z,9.67
2022-08-30T01:55:57.938Z,9.66
2022-08-30T01:56:58.074Z,9.66
2022-08-30T01:57:57.921Z,9.69
2022-08-30T01:59:02.374Z,9.59
2022-08-30T01:59:58.910Z,9.62
2022-08-30T02:00:57.930Z,9.62
2022-08-30T02:01:57.890Z,9.60
2022-08-30T02:02:57.880Z,9.60
2022-08-30T02:03:57.954Z,9.59
2022-08-30T02:04:58.394Z,9.60
2022-08-30T02:05:57.851Z,9.57
2022-08-30T02:06:57.838Z,9.54
2022-08-30T02:07:57.823Z,9.54
2022-08-30T02:08:57.822Z,9.51
2022-08-30T02:09:57.813Z,9.52
2022-08-30T02:10:57.824Z,9.47
2022-08-30T02:11:57.802Z,9.48
2022-08-30T02:12:57.794Z,9.44
2022-08-30T02:13:57.787Z,9.47
2022-08-30T02:14:57.774Z,9.45
2022-08-30T02:15:57.762Z,9.45
2022-08-30T02:16:57.813Z,9.47
2022-08-30T02:17:57.735Z,9.44
2022-08-30T02:18:57.725Z,9.44
2022-08-30T02:19:57.725Z,9.44
2022-08-30T02:20:57.707Z,9.41
2022-08-30T02:21:57.715Z,9.47
2022-08-30T02:23:00.844Z,9.41
2022-08-30T02:23:57.688Z,9.42
2022-08-30T02:24:57.687Z,9.42
2022-08-30T02:25:57.659Z,9.37
2022-08-30T02:26:57.670Z,9.41
2022-08-30T02:27:57.646Z,9.34
2022-08-30T02:28:59.023Z,9.33
2022-08-30T02:29:57.628Z,9.34
2022-08-30T02:30:57.681Z,9.34
2022-08-30T02:31:57.629Z,9.30
2022-08-30T02:32:57.616Z,9.36
2022-08-30T02:33:57.617Z,9.27
2022-08-30T02:34:57.611Z,9.30
2022-08-30T02:35:57.601Z,9.34
2022-08-30T02:36:57.610Z,9.36
2022-08-30T02:37:57.597Z,9.33
2022-08-30T02:38:57.582Z,9.36
2022-08-30T02:39:57.597Z,9.29
2022-08-30T02:40:57.572Z,9.24
2022-08-30T02:41:57.560Z,9.26
2022-08-30T02:42:57.562Z,9.19
2022-08-30T02:43:57.535Z,9.22
2022-08-30T02:44:57.523Z,9.16
2022-08-30T02:45:57.572Z,9.22
2022-08-30T02:46:57.511Z,9.16
2022-08-30T02:47:57.514Z,9.14
2022-08-30T02:48:58.675Z,9.09
2022-08-30T02:49:57.484Z,9.15
2022-08-30T02:50:57.485Z,9.16
2022-08-30T02:51:57.474Z,9.15
2022-08-30T02:52:57.492Z,9.15
2022-08-30T02:53:57.465Z,9.16
2022-08-30T02:54:57.466Z,9.16
2022-08-30T02:55:57.880Z,9.14
2022-08-30T02:56:57.455Z,9.15
2022-08-30T02:57:57.436Z,9.15
2022-08-30T02:58:57.444Z,9.11
2022-08-30T02:59:57.417Z,9.09
2022-08-30T03:00:57.470Z,9.06
2022-08-30T03:01:57.417Z,9.15
2022-08-30T03:02:57.420Z,9.06
2022-08-30T03:03:57.443Z,9.04
2022-08-30T03:04:57.416Z,9.08
2022-08-30T03:05:57.408Z,9.08
2022-08-30T03:06:57.415Z,9.06
2022-08-30T03:07:57.400Z,8.99
2022-08-30T03:08:57.409Z,9.04
2022-08-30T03:09:57.393Z,9.01
2022-08-30T03:10:57.396Z,8.99
2022-08-30T03:11:57.387Z,9.01
2022-08-30T03:12:57.391Z,9.03
2022-08-30T03:13:57.398Z,9.04
2022-08-30T03:14:57.401Z,9.01
2022-08-30T03:15:57.373Z,8.99
2022-08-30T03:16:57.423Z,8.98
2022-08-30T03:17:57.361Z,8.99
2022-08-30T03:18:57.379Z,8.98
2022-08-30T03:19:57.352Z,8.99
2022-08-30T03:20:57.344Z,8.95
2022-08-30T03:21:57.333Z,8.93
2022-08-30T03:22:57.340Z,8.96
2022-08-30T03:23:57.323Z,8.99
2022-08-30T03:24:57.347Z,8.96
2022-08-30T03:25:57.330Z,8.93
2022-08-30T03:26:57.323Z,8.89
2022-08-30T03:27:57.314Z,8.95
2022-08-30T03:28:57.318Z,8.92
2022-08-30T03:29:57.322Z,8.88
2022-08-30T03:30:57.305Z,8.90
2022-08-30T03:31:57.339Z,8.90
2022-08-30T03:32:57.298Z,8.89
2022-08-30T03:33:57.297Z,8.88
2022-08-30T03:34:57.307Z,8.90
2022-08-30T03:35:57.293Z,8.89
2022-08-30T03:36:57.296Z,8.88
2022-08-30T03:37:57.287Z,8.89
2022-08-30T03:38:57.289Z,8.90
2022-08-30T03:39:57.287Z,8.93
2022-08-30T03:40:57.287Z,8.90
2022-08-30T03:41:57.268Z,8.88
2022-08-30T03:42:57.277Z,8.93
2022-08-30T03:44:00.086Z,8.88
2022-08-30T03:44:57.275Z,8.95
2022-08-30T03:45:57.305Z,8.90
2022-08-30T03:46:57.269Z,8.89
2022-08-30T03:47:57.260Z,8.89
2022-08-30T03:48:57.260Z,8.93
2022-08-30T03:49:57.274Z,8.88
2022-08-30T03:50:57.271Z,8.88
2022-08-30T03:51:57.260Z,8.86
2022-08-30T03:52:57.262Z,8.86
2022-08-30T03:53:57.252Z,8.86
2022-08-30T03:54:57.262Z,8.86
2022-08-30T03:55:57.332Z,8.88
2022-08-30T03:56:57.257Z,8.90
2022-08-30T03:57:57.244Z,8.88
2022-08-30T03:58:57.243Z,8.88
2022-08-30T03:59:57.233Z,8.86
2022-08-30T04:00:57.310Z,8.83
2022-08-30T04:01:57.263Z,8.83
2022-08-30T04:02:57.215Z,8.86
2022-08-30T04:03:57.195Z,8.89
2022-08-30T04:04:57.195Z,8.86
2022-08-30T04:05:57.182Z,8.90
2022-08-30T04:06:57.195Z,8.81
2022-08-30T04:07:57.165Z,8.81
2022-08-30T04:08:57.171Z,8.78
2022-08-30T04:09:57.157Z,8.80
2022-08-30T04:10:57.156Z,8.80
2022-08-30T04:11:57.166Z,8.86
2022-08-30T04:12:57.158Z,8.71
2022-08-30T04:13:57.168Z,8.77
2022-08-30T04:14:57.157Z,8.80
2022-08-30T04:15:57.204Z,8.80
2022-08-30T04:16:57.168Z,8.78
2022-08-30T04:17:57.158Z,8.78
2022-08-30T04:18:57.149Z,8.74
2022-08-30T04:19:57.146Z,8.72
2022-08-30T04:20:57.146Z,8.77
2022-08-30T04:21:57.154Z,8.70
2022-08-30T04:22:57.147Z,8.68
2022-08-30T04:23:57.128Z,8.70
2022-08-30T04:24:57.132Z,8.63
2022-08-30T04:25:57.118Z,8.67
2022-08-30T04:26:57.118Z,8.68
2022-08-30T04:27:57.123Z,8.65
2022-08-30T04:28:57.100Z,8.65
2022-08-30T04:29:57.119Z,8.65
2022-08-30T04:30:57.116Z,8.63
2022-08-30T04:31:57.172Z,8.67
2022-08-30T04:32:58.900Z,8.65
2022-08-30T04:33:57.072Z,8.71
2022-08-30T04:34:57.072Z,8.68
2022-08-30T04:35:57.063Z,8.77
2022-08-30T04:36:57.060Z,8.77
2022-08-30T04:37:57.062Z,8.77
2022-08-30T04:38:57.054Z,8.75
2022-08-30T04:39:57.103Z,8.80
2022-08-30T04:40:57.044Z,8.80
2022-08-30T04:41:57.038Z,8.77
2022-08-30T04:42:57.053Z,8.81
2022-08-30T04:43:57.025Z,8.88
2022-08-30T04:44:57.034Z,8.80
2022-08-30T04:45:57.093Z,8.90
2022-08-30T04:46:57.025Z,8.93
2022-08-30T04:47:57.234Z,8.92
2022-08-30T04:48:57.027Z,8.93
2022-08-30T04:49:57.014Z,8.92
2022-08-30T04:50:57.016Z,8.93
2022-08-30T04:51:57.006Z,8.99
2022-08-30T04:52:56.999Z,8.99
2022-08-30T04:53:57.013Z,8.96
2022-08-30T04:54:57.005Z,8.95
2022-08-30T04:55:56.988Z,8.95
2022-08-30T04:56:56.986Z,8.99
2022-08-30T04:57:56.983Z,8.98
2022-08-30T04:58:56.989Z,9.01
2022-08-30T04:59:56.966Z,8.98
2022-08-30T05:00:56.992Z,8.90
2022-08-30T05:01:57.000Z,8.96
2022-08-30T05:02:56.959Z,8.89
2022-08-30T05:03:56.947Z,8.90
2022-08-30T05:04:56.959Z,8.96
2022-08-30T05:05:56.941Z,8.92
2022-08-30T05:06:56.943Z,8.93
2022-08-30T05:07:56.932Z,8.99
2022-08-30T05:08:56.932Z,8.95
2022-08-30T05:09:56.939Z,8.99
2022-08-30T05:10:56.932Z,9.06
2022-08-30T05:11:56.925Z,9.04
2022-08-30T05:12:56.925Z,9.06
2022-08-30T05:13:56.904Z,9.09
2022-08-30T05:14:56.924Z,9.12
2022-08-30T05:15:56.961Z,9.16
2022-08-30T05:16:56.914Z,9.14
2022-08-30T05:17:56.905Z,9.14
2022-08-30T05:18:56.911Z,9.16
2022-08-30T05:19:56.894Z,9.23
2022-08-30T05:20:56.924Z,9.27
2022-08-30T05:21:56.886Z,9.24
2022-08-30T05:22:56.875Z,9.33
2022-08-30T05:23:56.875Z,9.36
2022-08-30T05:24:56.856Z,9.42
2022-08-30T05:25:56.876Z,9.42
2022-08-30T05:26:56.849Z,9.40
2022-08-30T05:27:56.837Z,9.50
2022-08-30T05:28:56.832Z,9.55
2022-08-30T05:29:56.824Z,9.62
2022-08-30T05:30:56.874Z,9.59
2022-08-30T05:31:56.934Z,9.65
2022-08-30T05:32:56.806Z,9.69
2022-08-30T05:33:56.802Z,9.72
2022-08-30T05:34:56.817Z,9.77
2022-08-30T05:35:56.805Z,9.81
2022-08-30T05:36:56.766Z,9.85
2022-08-30T05:37:56.758Z,9.88
2022-08-30T05:38:56.742Z,9.96
2022-08-30T05:39:56.843Z,10.02
2022-08-30T05:40:56.730Z,10.05
2022-08-30T05:41:56.753Z,10.06
2022-08-30T05:42:56.700Z,10.09
2022-08-30T05:43:56.701Z,10.10
2022-08-30T05:44:56.689Z,10.08
2022-08-30T05:45:56.681Z,10.18
2022-08-30T05:46:56.670Z,10.20
2022-08-30T05:47:56.646Z,10.23
2022-08-30T05:48:56.622Z,10.24
2022-08-30T05:49:56.614Z,10.35
2022-08-30T05:50:56.594Z,10.36
2022-08-30T05:51:56.601Z,10.41
2022-08-30T05:52:56.592Z,10.42
2022-08-30T05:53:56.564Z,10.52
2022-08-30T05:54:56.544Z,10.58
2022-08-30T05:55:56.534Z,10.64
2022-08-30T05:56:56.526Z,10.75
2022-08-30T05:57:56.506Z,10.80
2022-08-30T05:58:56.486Z,10.86
2022-08-30T05:59:56.473Z,10.98
2022-08-30T06:00:56.449Z,11.00
2022-08-30T06:01:56.474Z,11.03
2022-08-30T06:02:56.497Z,11.16
2022-08-30T06:03:59.315Z,11.22
2022-08-30T06:04:57.530Z,11.25
2022-08-30T06:05:56.354Z,11.34
2022-08-30T06:06:56.347Z,11.45
2022-08-30T06:07:56.309Z,11.48
2022-08-30T06:08:56.278Z,11.62
2022-08-30T06:09:56.256Z,11.69
2022-08-30T06:10:56.229Z,11.82
2022-08-30T06:11:56.199Z,11.96
2022-08-30T06:12:56.186Z,12.13
2022-08-30T06:13:56.152Z,12.21
2022-08-30T06:14:56.111Z,12.33
2022-08-30T06:15:56.157Z,12.61
2022-08-30T06:16:56.060Z,12.71
2022-08-30T06:17:56.050Z,12.83
2022-08-30T06:18:56.001Z,13.02
2022-08-30T06:19:55.973Z,13.08
2022-08-30T06:20:55.931Z,13.20
2022-08-30T06:21:55.905Z,13.26
2022-08-30T06:22:55.872Z,13.40
2022-08-30T06:23:55.828Z,13.55
2022-08-30T06:24:58.055Z,13.63
2022-08-30T06:25:55.744Z,13.83
2022-08-30T06:26:55.693Z,14.05
2022-08-30T06:27:56.618Z,14.12
2022-08-30T06:28:55.612Z,14.27
2022-08-30T06:29:55.554Z,14.46
2022-08-30T06:30:55.555Z,14.66
2022-08-30T06:31:55.446Z,14.86
2022-08-30T06:32:55.386Z,14.97
2022-08-30T06:33:55.356Z,15.19
2022-08-30T06:34:55.287Z,15.25
2022-08-30T06:35:58.748Z,15.45
2022-08-30T06:36:55.177Z,15.52
2022-08-30T06:37:55.127Z,15.72
2022-08-30T06:38:55.085Z,15.96
2022-08-30T06:39:55.007Z,16.14
2022-08-30T06:40:54.942Z,16.37
2022-08-30T06:41:54.870Z,16.46
2022-08-30T06:42:54.800Z,16.61
2022-08-30T06:43:54.732Z,16.74
2022-08-30T06:44:54.660Z,16.90
2022-08-30T06:45:54.581Z,16.97
2022-08-30T06:46:54.534Z,17.07
2022-08-30T06:47:54.460Z,17.24
2022-08-30T06:48:56.254Z,17.38
2022-08-30T06:49:54.272Z,17.46
2022-08-30T06:50:54.170Z,17.62
2022-08-30T06:51:54.084Z,17.76
2022-08-30T06:52:53.994Z,17.90
2022-08-30T06:53:53.914Z,17.99
2022-08-30T06:54:53.836Z,18.09
2022-08-30T06:55:53.725Z,18.20
2022-08-30T06:56:58.438Z,18.34
2022-08-30T06:57:54.536Z,18.48
2022-08-30T06:58:53.426Z,18.58
2022-08-30T06:59:57.055Z,18.58
2022-08-30T07:00:53.198Z,18.64
2022-08-30T07:01:53.095Z,18.68
2022-08-30T07:02:53.002Z,18.75
2022-08-30T07:03:52.840Z,18.78
2022-08-30T07:04:52.699Z,18.60
2022-08-30T07:05:52.579Z,18.52
2022-08-30T07:06:52.421Z,18.41
2022-08-30T07:07:52.291Z,18.43
2022-08-30T07:08:55.926Z,18.34
2022-08-30T07:09:52.000Z,18.26
2022-08-30T07:10:51.866Z,18.20
2022-08-30T07:11:51.705Z,18.12
2022-08-30T07:12:51.539Z,18.05
2022-08-30T07:13:51.385Z,17.97
2022-08-30T07:14:51.225Z,17.93
2022-08-30T07:15:51.118Z,17.94
2022-08-30T07:16:52.127Z,17.83
2022-08-30T07:17:50.737Z,17.90
2022-08-30T07:18:50.565Z,17.94
2022-08-30T07:19:50.406Z,18.01
2022-08-30T07:20:50.247Z,18.13
2022-08-30T07:21:50.068Z,18.28
2022-08-30T07:22:49.905Z,18.34
2022-08-30T07:23:53.187Z,18.38
2022-08-30T07:24:49.575Z,18.49
2022-08-30T07:25:49.420Z,18.68
2022-08-30T07:26:49.237Z,18.85
2022-08-30T07:27:49.070Z,19.07
2022-08-30T07:28:48.902Z,19.13
2022-08-30T07:29:49.728Z,19.24
2022-08-30T07:30:48.572Z,19.41
2022-08-30T07:31:48.412Z,19.50
2022-08-30T07:32:48.222Z,19.60
2022-08-30T07:33:48.070Z,19.71
2022-08-30T07:34:47.902Z,19.77
2022-08-30T07:35:47.741Z,19.79
2022-08-30T07:36:47.584Z,19.90
2022-08-30T07:37:47.416Z,19.96
2022-08-30T07:38:47.235Z,20.05
2022-08-30T07:39:48.082Z,20.11
2022-08-30T07:40:46.962Z,20.17
2022-08-30T07:41:46.767Z,20.18
2022-08-30T07:42:46.587Z,20.26
2022-08-30T07:43:46.431Z,20.42
2022-08-30T07:44:46.248Z,20.44
2022-08-30T07:45:46.086Z,20.42
2022-08-30T07:46:45.968Z,20.42
2022-08-30T07:47:45.740Z,20.42
2022-08-30T07:48:45.571Z,20.32
2022-08-30T07:49:45.400Z,20.25
2022-08-30T07:50:45.211Z,20.27
2022-08-30T07:51:45.039Z,20.37
2022-08-30T07:52:44.860Z,20.34
2022-08-30T07:53:44.672Z,20.25
2022-08-30T07:54:44.473Z,20.30
2022-08-30T07:55:44.294Z,20.30
2022-08-30T07:56:44.094Z,20.26
2022-08-30T07:57:43.925Z,20.29
2022-08-30T07:58:43.716Z,20.27
2022-08-30T07:59:43.526Z,20.11
2022-08-30T08:00:43.327Z,20.11
2022-08-30T08:01:43.172Z,20.09
2022-08-30T08:02:42.985Z,20.09
2022-08-30T08:03:42.761Z,20.05
2022-08-30T08:04:42.547Z,20.07
2022-08-30T08:05:42.359Z,20.02
2022-08-30T08:06:42.154Z,20.05
2022-08-30T08:07:41.958Z,20.02
2022-08-30T08:08:41.741Z,19.81
2022-08-30T08:09:41.547Z,19.70
2022-08-30T08:10:41.331Z,19.50
2022-08-30T08:11:41.133Z,19.53
2022-08-30T08:12:40.923Z,19.34
2022-08-30T08:13:54.147Z,19.20
2022-08-30T08:14:41.526Z,19.13
2022-08-30T08:15:40.353Z,19.01
2022-08-30T08:16:40.126Z,19.00
2022-08-30T08:17:39.925Z,19.04
2022-08-30T08:18:39.746Z,19.04
2022-08-30T08:19:39.527Z,19.13
2022-08-30T08:20:39.338Z,19.17
2022-08-30T08:21:39.137Z,19.30
2022-08-30T08:22:40.188Z,19.39
2022-08-30T08:23:38.761Z,19.44
2022-08-30T08:24:38.566Z,19.47
2022-08-30T08:25:38.370Z,19.49
2022-08-30T08:26:38.170Z,19.54
2022-08-30T08:27:38.000Z,19.53
2022-08-30T08:28:37.802Z,19.54
2022-08-30T08:29:37.652Z,19.53
2022-08-30T08:30:37.460Z,19.60
2022-08-30T08:31:37.369Z,19.64
2022-08-30T08:32:37.133Z,19.57
2022-08-30T08:33:36.974Z,19.44
2022-08-30T08:34:36.809Z,19.39
2022-08-30T08:35:36.663Z,19.44
2022-08-30T08:36:36.484Z,19.44
2022-08-30T08:37:36.323Z,19.44
2022-08-30T08:38:36.156Z,19.41
2022-08-30T08:39:35.997Z,19.44
2022-08-30T08:40:35.943Z,19.50
2022-08-30T08:41:35.705Z,19.53
2022-08-30T08:42:35.549Z,19.53
2022-08-30T08:43:35.409Z,19.53
2022-08-30T08:44:35.329Z,19.49
2022-08-30T08:45:35.145Z,19.50
2022-08-30T08:46:35.191Z,19.57
2022-08-30T08:47:34.860Z,19.57
2022-08-30T08:48:51.737Z,19.79
2022-08-30T08:49:35.582Z,20.07
2022-08-30T08:50:34.452Z,20.19
2022-08-30T08:51:34.314Z,20.30
2022-08-30T08:52:34.164Z,20.29
2022-08-30T08:53:45.600Z,20.30
2022-08-30T08:54:34.892Z,20.33
2022-08-30T08:55:33.776Z,20.29
2022-08-30T08:56:33.623Z,20.33
2022-08-30T08:57:33.493Z,20.33
2022-08-30T08:58:33.355Z,20.32
2022-08-30T08:59:33.226Z,20.26
2022-08-30T09:00:33.085Z,20.12
2022-08-30T09:01:33.005Z,20.05
2022-08-30T09:02:34.463Z,20.12
2022-08-30T09:03:32.705Z,20.14
2022-08-30T09:04:32.571Z,20.19
2022-08-30T09:05:32.428Z,20.15
2022-08-30T09:06:32.309Z,20.26
2022-08-30T09:07:32.179Z,20.34
2022-08-30T09:08:32.049Z,20.48
2022-08-30T09:09:31.930Z,20.55
2022-08-30T09:10:49.480Z,20.63
2022-08-30T09:11:32.681Z,20.61
2022-08-30T09:12:31.539Z,20.48
2022-08-30T09:13:31.429Z,20.36
2022-08-30T09:14:31.298Z,20.42
2022-08-30T09:15:31.225Z,20.44
2022-08-30T09:16:31.072Z,20.49
2022-08-30T09:17:30.947Z,20.39
2022-08-30T09:18:30.854Z,20.37
2022-08-30T09:19:30.704Z,20.41
2022-08-30T09:20:30.586Z,20.48
2022-08-30T09:21:30.456Z,20.50
2022-08-30T09:22:30.342Z,20.55
2022-08-30T09:23:30.219Z,20.63
2022-08-30T09:24:30.107Z,20.79
2022-08-30T09:25:29.978Z,20.88
2022-08-30T09:26:29.888Z,21.07
2022-08-30T09:27:29.766Z,21.13
2022-08-30T09:28:29.619Z,21.10
2022-08-30T09:29:29.507Z,21.07
2022-08-30T09:30:29.380Z,21.11
2022-08-30T09:31:29.328Z,21.14
2022-08-30T09:32:29.156Z,21.16
2022-08-30T09:33:29.030Z,21.14
2022-08-30T09:34:28.891Z,21.16
2022-08-30T09:35:28.781Z,21.19
2022-08-30T09:36:28.653Z,21.11
2022-08-30T09:37:28.549Z,21.10
2022-08-30T09:38:28.423Z,21.08
2022-08-30T09:39:28.334Z,21.03
2022-08-30T09:40:28.218Z,20.93
2022-08-30T09:41:28.056Z,20.93
2022-08-30T09:42:27.949Z,20.89
2022-08-30T09:43:27.821Z,20.98
2022-08-30T09:44:27.695Z,21.04
2022-08-30T09:45:27.932Z,21.13
2022-08-30T09:46:27.517Z,21.23
2022-08-30T09:47:27.348Z,21.29
2022-08-30T09:48:27.262Z,21.30
2022-08-30T09:49:27.128Z,21.25
2022-08-30T09:50:27.017Z,21.23
2022-08-30T09:51:26.898Z,21.23
2022-08-30T09:52:26.788Z,21.28
2022-08-30T09:53:26.679Z,21.18
2022-08-30T09:54:26.561Z,21.14
2022-08-30T09:55:26.450Z,21.16
2022-08-30T09:56:26.332Z,21.08
2022-08-30T09:57:33.827Z,21.01
2022-08-30T09:58:29.907Z,21.00
2022-08-30T09:59:25.992Z,20.93
2022-08-30T10:00:25.883Z,20.98
2022-08-30T10:01:25.797Z,20.95
2022-08-30T10:02:25.693Z,21.04
2022-08-30T10:03:35.689Z,21.13
2022-08-30T10:04:30.876Z,21.18
2022-08-30T10:05:25.361Z,21.30
2022-08-30T10:06:25.185Z,21.40
2022-08-30T10:07:29.108Z,21.44
2022-08-30T10:08:25.300Z,21.47
2022-08-30T10:09:24.857Z,21.47
2022-08-30T10:10:24.726Z,21.56
2022-08-30T10:11:24.616Z,21.66
2022-08-30T10:12:24.500Z,21.73
2022-08-30T10:13:24.378Z,21.74
2022-08-30T10:14:24.307Z,21.77
2022-08-30T10:15:24.140Z,21.84
2022-08-30T10:16:24.021Z,21.82
2022-08-30T10:17:27.085Z,21.81
2022-08-30T10:18:23.790Z,21.84
2022-08-30T10:19:23.676Z,21.81
2022-08-30T10:20:23.540Z,21.77
2022-08-30T10:21:23.413Z,21.81
2022-08-30T10:22:23.291Z,21.85
2022-08-30T10:23:23.173Z,21.91
2022-08-30T10:24:23.053Z,21.90
2022-08-30T10:25:22.913Z,22.00
2022-08-30T10:26:22.796Z,22.03
2022-08-30T10:27:22.679Z,22.06
2022-08-30T10:28:22.556Z,22.06
2022-08-30T10:29:22.426Z,22.01
2022-08-30T10:30:22.343Z,22.01
2022-08-30T10:31:22.186Z,22.01
2022-08-30T10:32:22.073Z,21.98
2022-08-30T10:33:21.946Z,21.97
2022-08-30T10:34:21.837Z,21.94
2022-08-30T10:35:21.729Z,21.94
2022-08-30T10:36:21.617Z,21.88
2022-08-30T10:37:21.489Z,21.82
2022-08-30T10:38:21.379Z,21.91
2022-08-30T10:39:21.260Z,22.00
2022-08-30T10:40:21.162Z,22.04
2022-08-30T10:41:21.039Z,22.06
2022-08-30T10:42:20.920Z,22.06
2022-08-30T10:43:20.806Z,22.01
2022-08-30T10:44:20.695Z,22.03
2022-08-30T10:45:20.582Z,22.06
2022-08-30T10:46:20.463Z,22.00
2022-08-30T10:47:23.175Z,22.01
2022-08-30T10:48:20.236Z,21.96
2022-08-30T10:49:20.111Z,21.98
2022-08-30T10:50:20.002Z,21.81
2022-08-30T10:51:19.865Z,21.63
2022-08-30T10:52:19.769Z,21.58
2022-08-30T10:53:19.639Z,21.60
2022-08-30T10:54:19.530Z,21.62
2022-08-30T10:55:19.418Z,21.69
2022-08-30T10:56:19.288Z,21.73
2022-08-30T10:57:19.158Z,21.77
2022-08-30T10:58:19.055Z,21.78
2022-08-30T10:59:18.938Z,21.78
2022-08-30T11:00:18.829Z,21.67
2022-08-30T11:01:18.826Z,21.60
2022-08-30T11:02:19.588Z,21.63
2022-08-30T11:03:18.595Z,21.62
2022-08-30T11:04:18.341Z,21.66
2022-08-30T11:05:18.240Z,21.69
2022-08-30T11:06:18.135Z,21.69
2022-08-30T11:07:17.992Z,21.69
2022-08-30T11:08:22.212Z,21.63
2022-08-30T11:09:18.754Z,21.63
2022-08-30T11:10:17.643Z,21.65
2022-08-30T11:11:17.542Z,21.63
2022-08-30T11:12:17.404Z,21.71
2022-08-30T11:13:17.413Z,21.73
2022-08-30T11:14:17.166Z,21.80
2022-08-30T11:15:17.037Z,21.90
2022-08-30T11:16:16.966Z,21.96
2022-08-30T11:17:16.800Z,22.04
2022-08-30T11:18:16.687Z,22.16
2022-08-30T11:19:16.559Z,22.19
2022-08-30T11:20:16.453Z,22.25
2022-08-30T11:21:16.348Z,22.27
2022-08-30T11:22:16.209Z,22.28
2022-08-30T11:23:16.252Z,22.31
2022-08-30T11:24:15.965Z,22.30
2022-08-30T11:25:15.834Z,22.43
2022-08-30T11:26:20.595Z,22.49
2022-08-30T11:27:16.602Z,22.53
2022-08-30T11:28:19.106Z,22.55
2022-08-30T11:29:16.340Z,22.55
2022-08-30T11:30:19.230Z,22.56
2022-08-30T11:31:15.915Z,22.62
2022-08-30T11:32:14.983Z,22.61
2022-08-30T11:33:14.843Z,22.53
2022-08-30T11:34:14.723Z,22.40
2022-08-30T11:35:14.607Z,22.38
2022-08-30T11:36:14.465Z,22.37
2022-08-30T11:37:14.363Z,22.36
2022-08-30T11:38:14.225Z,22.31
2022-08-30T11:39:14.106Z,22.27
2022-08-30T11:41:14.860Z,22.16
2022-08-30T11:42:14.110Z,22.13
2022-08-30T11:43:13.618Z,22.15
2022-08-30T11:44:13.499Z,22.16
2022-08-30T11:45:13.372Z,22.11
2022-08-30T11:46:14.617Z,22.04
2022-08-30T11:47:13.140Z,22.04
2022-08-30T11:48:13.043Z,22.03
2022-08-30T11:49:12.903Z,21.94
2022-08-30T11:50:12.818Z,21.93
2022-08-30T11:51:12.662Z,21.90
2022-08-30T11:52:27.388Z,21.88
2022-08-30T11:53:13.445Z,21.81
2022-08-30T11:54:12.314Z,21.82
2022-08-30T11:55:12.203Z,21.81
2022-08-30T11:56:12.075Z,21.80
2022-08-30T11:57:11.948Z,21.81
2022-08-30T11:58:11.913Z,21.82
2022-08-30T11:59:11.717Z,21.88
2022-08-30T12:00:11.603Z,21.90
2022-08-30T12:01:25.904Z,21.97
2022-08-30T12:02:12.564Z,22.04
2022-08-30T12:03:11.345Z,22.07
2022-08-30T12:04:15.120Z,22.09
2022-08-30T12:05:11.002Z,22.15
2022-08-30T12:06:10.902Z,22.16
2022-08-30T12:07:10.778Z,22.18
2022-08-30T12:08:10.695Z,22.27
2022-08-30T12:09:10.521Z,22.31
2022-08-30T12:10:10.416Z,22.37
2022-08-30T12:11:10.288Z,22.43
2022-08-30T12:12:10.174Z,22.48
2022-08-30T12:13:10.044Z,22.44
2022-08-30T12:14:11.548Z,22.38
2022-08-30T12:15:09.794Z,22.40
2022-08-30T12:16:09.722Z,22.46
2022-08-30T12:17:09.554Z,22.56
2022-08-30T12:18:15.368Z,22.56
2022-08-30T12:19:10.310Z,22.56
2022-08-30T12:20:09.187Z,22.52
2022-08-30T12:21:09.110Z,22.59
2022-08-30T12:22:08.960Z,22.51
2022-08-30T12:23:08.829Z,22.43
2022-08-30T12:24:08.743Z,22.36
2022-08-30T12:25:08.587Z,22.28
2022-08-30T12:26:08.471Z,22.28
2022-08-30T12:27:08.343Z,22.28
2022-08-30T12:28:08.223Z,22.25
2022-08-30T12:29:08.103Z,22.23
2022-08-30T12:30:07.996Z,22.16
2022-08-30T12:31:07.854Z,22.11
2022-08-30T12:32:07.767Z,22.07
2022-08-30T12:33:07.602Z,22.03
2022-08-30T12:34:07.484Z,21.98
2022-08-30T12:35:07.374Z,21.94
2022-08-30T12:36:07.235Z,21.93
2022-08-30T12:37:07.106Z,21.91
2022-08-30T12:38:06.985Z,21.88
2022-08-30T12:39:06.857Z,21.91
2022-08-30T12:40:06.821Z,21.96
2022-08-30T12:41:06.616Z,21.97
2022-08-30T12:42:06.496Z,21.98
2022-08-30T12:43:06.368Z,22.09
2022-08-30T12:44:06.250Z,22.15
2022-08-30T12:45:06.118Z,22.23
2022-08-30T12:46:07.468Z,22.27
2022-08-30T12:47:05.880Z,22.33
2022-08-30T12:48:05.766Z,22.41
2022-08-30T12:49:05.637Z,22.49
2022-08-30T12:50:05.521Z,22.56
2022-08-30T12:51:05.409Z,22.62
2022-08-30T12:52:05.282Z,22.66
2022-08-30T12:53:05.161Z,22.68
2022-08-30T12:54:05.052Z,22.74
2022-08-30T12:55:04.921Z,22.74
2022-08-30T12:56:05.823Z,22.67
2022-08-30T12:57:25.657Z,22.62
2022-08-30T12:58:05.564Z,22.56
2022-08-30T12:59:04.434Z,22.56
2022-08-30T13:00:04.365Z,22.53
2022-08-30T13:01:04.315Z,22.53
2022-08-30T13:02:04.201Z,22.55